createdAt,value
2018-11-29T00:01:43.205Z,80.86
2018-11-29T00:06:45.533Z,80.91
2018-11-29T00:11:48.758Z,80.15
2018-11-29T00:16:51.065Z,81.09
2018-11-29T00:21:53.469Z,79.76
2018-11-29T00:26:55.765Z,79.26
2018-11-29T00:31:58.163Z,80.49
2018-11-29T00:37:00.472Z,80.00
2018-11-29T00:42:02.957Z,80.58
2018-11-29T00:47:05.454Z,80.31
2018-11-29T00:52:07.733Z,79.73
2018-11-29T00:57:10.098Z,79.68
2018-11-29T01:02:12.457Z,79.26
2018-11-29T01:07:14.777Z,78.97
2018-11-29T01:12:17.156Z,77.79
2018-11-29T01:17:19.652Z,78.39
2018-11-29T01:22:21.984Z,77.84
2018-11-29T01:27:24.304Z,76.62
2018-11-29T01:32:26.767Z,77.57
2018-11-29T01:37:29.147Z,76.58
2018-11-29T01:42:31.488Z,75.54
2018-11-29T01:47:33.804Z,75.09
2018-11-29T01:52:36.097Z,75.26
2018-11-29T01:57:38.469Z,75.56
2018-11-29T02:02:40.787Z,74.78
2018-11-29T02:07:43.117Z,73.23
2018-11-29T02:12:45.560Z,74.60
2018-11-29T02:17:47.898Z,73.76
2018-11-29T02:22:50.233Z,72.60
2018-11-29T02:27:52.538Z,72.97
2018-11-29T02:32:54.866Z,72.85
2018-11-29T02:37:57.173Z,72.33
2018-11-29T02:42:59.542Z,72.81
2018-11-29T02:48:01.838Z,71.77
2018-11-29T02:53:04.265Z,71.98
2018-11-29T02:58:06.631Z,72.18
2018-11-29T03:03:08.928Z,72.25
2018-11-29T03:08:11.242Z,72.04
2018-11-29T03:13:13.569Z,71.75
2018-11-29T03:18:16.633Z,71.93
2018-11-29T03:23:18.941Z,71.66
2018-11-29T03:28:21.269Z,71.43
2018-11-29T03:33:23.565Z,71.47
2018-11-29T03:38:26.742Z,71.13
2018-11-29T03:43:29.117Z,70.88
2018-11-29T03:48:31.407Z,70.04
2018-11-29T03:53:33.769Z,69.68
2018-11-29T03:58:36.183Z,70.87
2018-11-29T04:03:38.649Z,70.52
2018-11-29T04:08:42.190Z,71.06
2018-11-29T04:13:44.710Z,70.50
2018-11-29T04:18:49.118Z,71.15
2018-11-29T04:23:50.624Z,70.17
2018-11-29T04:28:52.980Z,70.60
2018-11-29T04:33:55.369Z,70.50
2018-11-29T04:38:58.788Z,70.71
2018-11-29T04:44:01.311Z,70.98
2018-11-29T04:49:04.239Z,71.00
2018-11-29T04:54:07.325Z,71.24
2018-11-29T04:59:09.664Z,69.85
2018-11-29T05:04:12.001Z,69.24
2018-11-29T05:09:14.347Z,70.67
2018-11-29T05:14:16.727Z,70.96
2018-11-29T05:19:19.115Z,70.85
2018-11-29T05:24:21.431Z,69.21
2018-11-29T05:29:23.737Z,69.69
2018-11-29T05:34:26.080Z,69.04
2018-11-29T05:39:28.411Z,68.97
2018-11-29T05:44:30.841Z,69.94
2018-11-29T05:49:33.248Z,69.10
2018-11-29T05:54:35.631Z,69.44
2018-11-29T05:59:37.970Z,68.44
2018-11-29T06:04:40.285Z,68.63
2018-11-29T06:09:42.630Z,68.64
2018-11-29T06:14:46.074Z,68.82
2018-11-29T06:19:48.383Z,67.98
2018-11-29T06:24:50.706Z,69.15
2018-11-29T06:29:53.020Z,68.63
2018-11-29T06:34:55.721Z,68.58
2018-11-29T06:39:58.045Z,69.11
2018-11-29T06:45:00.445Z,67.38
2018-11-29T06:50:03.179Z,68.45
2018-11-29T06:55:10.158Z,68.27
2018-11-29T07:00:13.899Z,68.73
2018-11-29T07:05:16.277Z,69.01
2018-11-29T07:10:24.388Z,69.06
2018-11-29T07:15:26.908Z,67.73
2018-11-29T07:20:29.259Z,67.67
2018-11-29T07:25:31.594Z,66.83
2018-11-29T07:30:33.986Z,66.61
2018-11-29T07:35:36.508Z,67.21
2018-11-29T07:40:38.821Z,67.42
2018-11-29T07:45:41.201Z,66.72
2018-11-29T07:50:43.514Z,65.95
2018-11-29T07:55:45.907Z,64.81
2018-11-29T08:00:48.221Z,65.05
2018-11-29T08:05:50.623Z,64.92
2018-11-29T08:10:52.952Z,64.60
2018-11-29T08:15:55.340Z,65.59
2018-11-29T08:20:57.679Z,64.48
2018-11-29T08:26:00.107Z,62.06
2018-11-29T08:31:02.436Z,63.18
2018-11-29T08:36:04.819Z,63.38
2018-11-29T08:41:07.157Z,62.92
2018-11-29T08:46:09.556Z,63.48
2018-11-29T08:51:11.864Z,62.87
2018-11-29T08:56:14.167Z,62.16
2018-11-29T09:01:16.501Z,61.88
2018-11-29T09:06:18.789Z,59.94
2018-11-29T09:11:21.274Z,59.90
2018-11-29T09:16:23.626Z,59.50
2018-11-29T09:21:25.951Z,59.03
2018-11-29T09:26:28.245Z,58.32
2018-11-29T09:31:30.531Z,57.18
2018-11-29T09:36:32.814Z,58.00
2018-11-29T09:41:35.492Z,58.80
2018-11-29T09:46:37.869Z,57.68
2018-11-29T09:51:40.227Z,57.55
2018-11-29T09:56:42.564Z,57.49
2018-11-29T10:01:44.886Z,55.37
2018-11-29T10:06:47.211Z,55.95
2018-11-29T10:11:49.500Z,54.61
2018-11-29T10:16:51.835Z,55.68
2018-11-29T10:21:54.217Z,54.85
2018-11-29T10:26:56.550Z,54.85
2018-11-29T10:31:59.299Z,55.50
2018-11-29T10:37:01.195Z,54.16
2018-11-29T10:42:03.539Z,54.43
2018-11-29T10:47:05.863Z,52.86
2018-11-29T10:52:08.266Z,52.41
2018-11-29T10:57:10.602Z,52.93
2018-11-29T11:02:12.965Z,53.26
2018-11-29T11:07:15.685Z,51.30
2018-11-29T11:12:18.743Z,52.17
2018-11-29T11:17:20.429Z,50.76
2018-11-29T11:22:22.734Z,49.11
2018-11-29T11:27:25.035Z,50.65
2018-11-29T11:32:27.346Z,51.23
2018-11-29T11:37:29.664Z,49.47
2018-11-29T11:42:32.061Z,49.70
2018-11-29T11:47:34.435Z,49.61
2018-11-29T11:52:36.755Z,49.94
2018-11-29T11:57:39.113Z,48.90
2018-11-29T12:02:41.655Z,48.45
2018-11-29T12:07:43.953Z,48.98
2018-11-29T12:12:46.296Z,48.67
2018-11-29T12:17:48.658Z,48.13
2018-11-29T12:22:50.936Z,49.18
2018-11-29T12:27:53.236Z,48.06
2018-11-29T12:32:58.754Z,47.78
2018-11-29T12:38:01.041Z,48.07
2018-11-29T12:43:03.407Z,46.86
2018-11-29T12:48:05.793Z,46.00
2018-11-29T12:53:08.115Z,46.24
2018-11-29T12:58:10.414Z,45.69
2018-11-29T13:03:12.703Z,45.57
2018-11-29T13:08:14.979Z,45.59
2018-11-29T13:13:17.289Z,46.04
2018-11-29T13:18:19.728Z,45.97
2018-11-29T13:23:22.111Z,44.87
2018-11-29T13:28:24.405Z,45.60
2018-11-29T13:33:26.712Z,46.53
2018-11-29T13:38:29.034Z,47.08
2018-11-29T13:43:31.315Z,47.44
2018-11-29T13:48:33.656Z,46.20
2018-11-29T13:53:36.056Z,47.10
2018-11-29T13:58:38.373Z,45.56
2018-11-29T14:03:40.692Z,48.18
2018-11-29T14:08:43.010Z,47.47
2018-11-29T14:13:45.316Z,46.19
2018-11-29T14:18:47.664Z,46.22
2018-11-29T14:23:49.952Z,45.54
2018-11-29T14:28:52.259Z,46.38
2018-11-29T14:33:54.562Z,45.74
2018-11-29T14:38:56.856Z,47.13
2018-11-29T14:43:59.163Z,45.59
2018-11-29T14:49:01.654Z,46.30
2018-11-29T14:54:04.551Z,45.58
2018-11-29T14:59:06.913Z,46.13
2018-11-29T15:04:09.242Z,46.65
2018-11-29T15:09:11.576Z,46.95
2018-11-29T15:14:17.862Z,46.58
2018-11-29T15:19:16.347Z,47.33
2018-11-29T15:24:18.635Z,47.34
2018-11-29T15:29:21.752Z,47.54
2018-11-29T15:39:49.195Z,49.33
2018-11-29T15:44:51.546Z,49.51
2018-11-29T15:49:53.904Z,48.12
2018-11-29T15:54:56.268Z,47.34
2018-11-29T15:59:58.559Z,47.55
2018-11-29T16:05:00.835Z,47.11
2018-11-29T16:10:03.470Z,48.92
2018-11-29T16:15:08.376Z,46.64
2018-11-29T16:20:12.993Z,45.95
2018-11-29T16:25:15.327Z,46.71
2018-11-29T16:30:25.702Z,46.50
2018-11-29T16:35:28.029Z,47.29
2018-11-29T16:40:30.342Z,47.25
2018-11-29T16:45:32.692Z,47.91
2018-11-29T16:50:35.921Z,48.23
2018-11-29T16:55:38.330Z,47.43
2018-11-29T17:00:40.658Z,48.60
2018-11-29T17:05:42.988Z,48.25
2018-11-29T17:10:45.883Z,48.40
2018-11-29T17:15:48.808Z,49.36
2018-11-29T17:20:51.158Z,47.65
2018-11-29T17:25:53.444Z,47.48
2018-11-29T17:30:55.748Z,47.57
2018-11-29T17:35:58.021Z,47.91
2018-11-29T17:41:00.443Z,48.31
2018-11-29T17:46:03.745Z,49.04
2018-11-29T17:51:06.141Z,49.56
2018-11-29T17:56:08.545Z,49.39
2018-11-29T18:01:11.543Z,49.39
2018-11-29T18:06:13.867Z,50.23
2018-11-29T18:11:16.149Z,49.33
2018-11-29T18:16:18.569Z,49.48
2018-11-29T18:21:20.960Z,49.93
2018-11-29T18:26:23.273Z,50.40
2018-11-29T18:31:25.566Z,51.04
2018-11-29T18:36:28.005Z,51.32
2018-11-29T18:41:30.296Z,50.89
2018-11-29T18:46:32.607Z,50.82
2018-11-29T18:51:35.037Z,50.52
2018-11-29T18:56:37.380Z,50.93
2018-11-29T19:01:39.701Z,51.34
2018-11-29T19:06:42.082Z,51.24
2018-11-29T19:11:44.493Z,50.66
2018-11-29T19:16:46.852Z,52.15
2018-11-29T19:21:49.266Z,51.28
2018-11-29T19:26:51.723Z,52.16
2018-11-29T19:31:54.064Z,51.10
2018-11-29T19:36:56.385Z,51.91
2018-11-29T19:41:58.701Z,51.40
2018-11-29T19:47:01.076Z,51.64
2018-11-29T19:52:03.465Z,51.54
2018-11-29T19:57:05.794Z,51.01
2018-11-29T20:02:08.091Z,50.63
2018-11-29T20:07:10.412Z,51.00
2018-11-29T20:12:12.718Z,50.81
2018-11-29T20:17:15.827Z,50.62
2018-11-29T20:22:18.362Z,50.82
2018-11-29T20:27:22.709Z,51.47
2018-11-29T20:32:26.155Z,52.49
2018-11-29T20:37:28.971Z,53.94
2018-11-29T20:42:31.430Z,53.47
2018-11-29T20:47:33.743Z,51.34
2018-11-29T20:52:36.228Z,51.78
2018-11-29T20:57:38.552Z,50.83
2018-11-29T21:02:41.145Z,50.64
2018-11-29T21:07:44.821Z,51.25
2018-11-29T21:12:47.360Z,51.38
2018-11-29T21:17:50.704Z,51.40
2018-11-29T21:22:53.165Z,51.46
2018-11-29T21:27:55.472Z,52.35
2018-11-29T21:32:57.872Z,51.73
2018-11-29T21:38:04.261Z,52.16
2018-11-29T21:43:06.540Z,52.16
2018-11-29T21:48:08.925Z,51.66
2018-11-29T21:53:11.303Z,52.57
2018-11-29T21:58:13.574Z,51.37
2018-11-29T22:03:16.119Z,52.95
2018-11-29T22:08:18.578Z,52.19
2018-11-29T22:13:20.839Z,52.35
2018-11-29T22:18:24.373Z,52.59
2018-11-29T22:23:26.727Z,52.54
2018-11-29T22:28:29.482Z,52.48
2018-11-29T22:33:31.784Z,53.82
2018-11-29T22:38:34.073Z,53.25
2018-11-29T22:43:36.325Z,54.24
2018-11-29T22:48:38.597Z,54.64
2018-11-29T22:53:41.315Z,53.94
2018-11-29T22:58:43.580Z,55.03
2018-11-29T23:03:45.897Z,52.71
2018-11-29T23:08:50.563Z,53.25
2018-11-29T23:13:52.889Z,53.10
2018-11-29T23:18:55.171Z,53.30
2018-11-29T23:23:57.530Z,53.52
2018-11-29T23:29:00.044Z,53.30
2018-11-29T23:34:02.377Z,54.42
2018-11-29T23:39:06.419Z,54.11
2018-11-29T23:44:08.796Z,53.84
2018-11-29T23:49:11.482Z,54.62
2018-11-29T23:54:13.939Z,54.05
2018-11-29T23:59:16.292Z,54.49
